Time;durP1;ratioP1;P1;durP2;ratioP2;P2;SDS_P1;SDS_P2;PMS_P1;PMS_P2;Temp;Humidity;BMP_temperature;BMP_pressure;BME280_temperature;BME280_humidity;BME280_pressure;Samples;Min_cycle;Max_cycle;Signal;HPM_P1;HPM_P2
2022/12/20 00:01:00;;;;;;;81.72;34.30;;;;;;;-0.89;100.00;99803.25;2223410;79;21565;-57
2022/12/20 00:04:02;;;;;;;84.47;34.07;;;;;;;-0.75;100.00;99799.41;2229908;79;21479;-57
2022/12/20 00:07:04;;;;;;;;;;;;;;;-0.65;100.00;99790.82;2239561;79;21057;-57
2022/12/20 00:10:05;;;;;;;85.92;32.83;;;;;;;-0.53;100.00;99790.83;2226617;79;20105;-57
2022/12/20 00:13:07;;;;;;;87.65;34.03;;;;;;;-0.58;100.00;99783.95;2220706;79;21093;-58
2022/12/20 00:16:08;;;;;;;82.65;33.90;;;;;;;-0.41;100.00;99785.24;2226827;79;21555;-57
2022/12/20 00:19:10;;;;;;;83.62;33.33;;;;;;;-0.31;100.00;99786.95;2215412;79;20970;-58
2022/12/20 00:22:11;;;;;;;87.15;35.17;;;;;;;-0.21;100.00;99787.80;2221613;79;21551;-57
2022/12/20 00:25:13;;;;;;;80.47;33.10;;;;;;;-0.20;100.00;99781.78;2233295;79;20984;-57
2022/12/20 00:28:14;;;;;;;81.95;33.58;;;;;;;-0.18;100.00;99782.63;2205639;79;21062;-58
2022/12/20 00:31:15;;;;;;;83.40;34.65;;;;;;;-0.18;100.00;99782.19;2222413;79;20992;-58
2022/12/20 00:34:17;;;;;;;83.25;34.43;;;;;;;-0.10;100.00;99779.61;2219635;79;21000;-57
2022/12/20 00:37:18;;;;;;;80.67;33.63;;;;;;;-0.14;100.00;99784.75;2234494;79;20977;-58
2022/12/20 00:40:20;;;;;;;78.35;32.78;;;;;;;-0.13;100.00;99779.62;2235683;79;21067;-57
2022/12/20 00:43:22;;;;;;;81.45;33.88;;;;;;;-0.13;100.00;99774.46;2223205;79;21081;-57
2022/12/20 00:46:23;;;;;;;79.85;30.97;;;;;;;0.05;100.00;99776.12;2220254;79;21485;-57
2022/12/20 00:49:25;;;;;;;73.22;30.48;;;;;;;0.15;100.00;99774.38;2239686;79;21421;-57
2022/12/20 00:52:26;;;;;;;74.00;30.70;;;;;;;0.07;100.00;99770.95;2229452;79;21451;-57
2022/12/20 00:55:28;;;;;;;73.77;30.57;;;;;;;0.16;100.00;99770.94;2226873;79;20990;-57
2022/12/20 00:58:29;;;;;;;72.10;29.67;;;;;;;0.24;100.00;99766.59;2225583;79;20996;-58
2022/12/20 01:01:31;;;;;;;75.25;30.32;;;;;;;0.26;100.00;99764.87;2237613;79;20993;-57
2022/12/20 01:04:32;;;;;;;73.33;30.23;;;;;;;0.31;100.00;99766.98;2227149;79;21045;-57
2022/12/20 01:07:34;;;;;;;73.17;29.42;;;;;;;0.34;100.00;99768.29;2223764;79;21000;-58
2022/12/20 01:10:35;;;;;;;70.05;29.10;;;;;;;0.41;100.00;99760.51;2226241;79;20996;-57
2022/12/20 01:13:37;;;;;;;73.00;29.55;;;;;;;0.41;100.00;99758.77;2227240;79;21032;-57
2022/12/20 01:16:38;;;;;;;62.83;26.45;;;;;;;0.42;100.00;99756.63;2216219;79;20957;-58
2022/12/20 01:19:40;;;;;;;71.93;29.47;;;;;;;0.38;100.00;99756.66;2224597;79;21063;-57
2022/12/20 01:22:42;;;;;;;68.42;27.67;;;;;;;0.44;100.00;99761.34;2235234;79;20993;-57
2022/12/20 01:25:43;;;;;;;67.63;25.97;;;;;;;0.54;100.00;99760.02;2229401;79;21008;-58
2022/12/20 01:28:45;;;;;;;65.17;25.37;;;;;;;0.64;100.00;99754.78;2220519;79;20997;-57
2022/12/20 01:31:46;;;;;;;68.70;28.25;;;;;;;0.65;100.00;99758.23;2225762;79;21001;-58
2022/12/20 01:34:47;;;;;;;62.30;25.27;;;;;;;0.71;100.00;99755.61;2213062;79;21509;-57
2022/12/20 01:37:49;;;;;;;61.02;25.48;;;;;;;0.70;100.00;99744.84;2226205;79;20953;-58
2022/12/20 01:40:51;;;;;;;61.77;24.73;;;;;;;0.67;100.00;99748.30;2224438;79;21518;-57
2022/12/20 01:43:52;;;;;;;54.70;21.87;;;;;;;0.63;100.00;99748.33;2225201;79;21000;-57
2022/12/20 01:46:53;;;;;;;63.55;24.72;;;;;;;0.61;100.00;99748.34;2241539;79;21070;-57
2022/12/20 01:49:55;;;;;;;55.12;21.82;;;;;;;0.66;100.00;99741.44;2231860;79;21021;-58
2022/12/20 01:52:58;;;;;;;57.10;23.22;;;;;;;0.79;100.00;99746.52;2238676;79;20953;-57
2022/12/20 01:56:00;;;;;;;57.45;21.82;;;;;;;0.94;100.00;99742.98;2195546;79;20985;-57
2022/12/20 01:59:01;;;;;;;58.00;19.80;;;;;;;0.91;100.00;99739.14;2240949;79;21075;-57
2022/12/20 02:02:03;;;;;;;43.90;17.17;;;;;;;0.84;100.00;99739.16;2232636;79;21007;-58
2022/12/20 02:05:04;;;;;;;45.98;16.73;;;;;;;0.85;100.00;99734.42;2223335;79;20992;-57
2022/12/20 02:08:06;;;;;;;43.65;17.05;;;;;;;0.75;100.00;99733.19;2242963;79;21516;-57
2022/12/20 02:11:08;;;;;;;44.03;16.77;;;;;;;0.75;100.00;99738.36;2232126;79;21052;-57
2022/12/20 02:14:10;;;;;;;44.20;16.05;;;;;;;0.73;100.00;99725.45;2229975;79;21530;-57
2022/12/20 02:17:11;;;;;;;44.75;16.25;;;;;;;0.71;100.00;99724.63;2229443;79;20954;-58
2022/12/20 02:20:12;;;;;;;43.08;16.65;;;;;;;0.70;100.00;99726.77;2240304;79;21637;-58
2022/12/20 02:23:14;;;;;;;39.98;15.38;;;;;;;0.73;100.00;99725.90;2231658;79;20984;-58
2022/12/20 02:26:15;;;;;;;42.50;17.10;;;;;;;0.70;100.00;99713.86;2221512;79;21005;-57
2022/12/20 02:29:17;;;;;;;43.58;16.07;;;;;;;0.63;100.00;99714.35;2226077;79;21588;-57
2022/12/20 02:32:18;;;;;;;40.40;15.38;;;;;;;0.67;100.00;99708.27;2241295;79;20993;-57
2022/12/20 02:35:20;;;;;;;45.53;15.60;;;;;;;0.75;100.00;99694.03;2205905;79;21497;-58
2022/12/20 02:38:23;;;;;;;39.60;15.83;;;;;;;0.75;100.00;99694.03;2208384;79;21014;-57
2022/12/20 02:41:25;;;;;;;42.55;16.60;;;;;;;0.75;100.00;99686.29;2235290;79;21020;-57
2022/12/20 02:47:29;;;;;;;48.33;19.87;;;;;;;0.76;100.00;99688.02;2228751;79;21311;-57
2022/12/20 02:50:31;;;;;;;71.15;27.35;;;;;;;0.87;100.00;99691.79;2244209;79;20958;-57
2022/12/20 02:53:32;;;;;;;45.60;18.98;;;;;;;0.90;100.00;99689.18;2279245;77;21119;-57
2022/12/20 02:56:34;;;;;;;42.48;16.65;;;;;;;0.97;100.00;99687.42;2270888;77;21510;-57
2022/12/20 02:59:35;;;;;;;43.17;20.43;;;;;;;0.99;100.00;99680.08;2279525;77;21025;-57
2022/12/20 03:05:40;;;;;;;41.75;16.77;;;;;;;0.98;100.00;99676.22;2256204;77;21496;-57
2022/12/20 03:08:42;;;;;;;44.23;17.80;;;;;;;0.99;100.00;99677.50;2285543;77;20958;-58
2022/12/20 03:11:44;;;;;;;42.40;17.27;;;;;;;0.94;100.00;99677.95;2283714;77;21016;-57
2022/12/20 03:14:45;;;;;;;43.13;16.93;;;;;;;0.97;100.00;99677.92;2285754;77;20973;-57
2022/12/20 03:17:47;;;;;;;38.85;14.83;;;;;;;1.01;100.00;99674.90;2288210;77;20995;-57
2022/12/20 03:20:48;;;;;;;41.00;16.27;;;;;;;1.03;100.00;99682.19;2255359;77;21016;-58
2022/12/20 03:23:50;;;;;;;41.18;16.20;;;;;;;0.95;100.00;99678.80;2277120;77;21025;-57
2022/12/20 03:26:52;;;;;;;42.08;15.45;;;;;;;0.92;100.00;99678.83;2265945;77;21546;-57
2022/12/20 03:29:53;;;;;;;41.10;14.93;;;;;;;1.02;100.00;99683.05;2283935;77;20953;-58
2022/12/20 03:32:55;;;;;;;41.35;15.40;;;;;;;1.10;100.00;99673.52;2246733;78;21580;-57
2022/12/20 03:35:57;;;;;;;37.13;14.23;;;;;;;1.08;100.00;99664.94;2266561;77;21113;-57
2022/12/20 03:38:58;;;;;;;36.17;14.47;;;;;;;1.07;100.00;99666.23;2283349;77;21223;-58
2022/12/20 03:41:59;;;;;;;34.60;14.07;;;;;;;1.20;100.00;99661.37;2277427;77;20965;-58
2022/12/20 03:45:01;;;;;;;38.20;15.10;;;;;;;1.12;100.00;99660.16;2284117;78;20945;-57
2022/12/20 03:48:02;;;;;;;41.45;15.08;;;;;;;1.13;100.00;99661.85;2283011;77;21546;-57
2022/12/20 03:51:04;;;;;;;43.80;16.93;;;;;;;1.15;100.00;99651.50;2277242;77;21035;-58
2022/12/20 03:54:06;;;;;;;40.88;14.70;;;;;;;1.19;100.00;99650.60;2279873;78;21264;-57
2022/12/20 03:57:07;;;;;;;44.50;16.30;;;;;;;1.16;100.00;99654.52;2266548;77;20988;-58
2022/12/20 04:00:11;;;;;;;42.47;17.33;;;;;;;1.17;100.00;99650.63;2247013;78;21518;-58
2022/12/20 04:03:12;;;;;;;45.45;18.80;;;;;;;1.16;100.00;99648.05;2275331;78;21526;-57
2022/12/20 04:06:14;;;;;;;48.00;19.12;;;;;;;1.08;100.00;99644.26;2277147;77;20999;-57
2022/12/20 04:09:16;;;;;;;43.53;17.70;;;;;;;1.04;100.00;99649.03;2270063;77;21018;-58
2022/12/20 04:12:17;;;;;;;47.80;19.42;;;;;;;1.06;100.00;99645.98;2264926;77;21036;-58
2022/12/20 04:15:19;;;;;;;43.85;16.97;;;;;;;1.02;100.00;99648.17;2257716;77;20988;-58
2022/12/20 04:22:17;;;;;;;43.90;16.50;;;;;;;1.06;100.00;99642.11;2296468;77;22788;-63
2022/12/20 04:25:18;;;;;;;48.15;19.48;;;;;;;1.08;100.00;99642.09;2255002;78;21032;-62
2022/12/20 04:28:18;;;;;;;57.43;22.67;;;;;;;0.98;100.00;99646.06;2304850;77;21015;-63
2022/12/20 04:31:19;;;;;;;55.43;21.42;;;;;;;0.89;100.00;99648.74;2303099;77;20963;-64
2022/12/20 04:34:19;;;;;;;42.85;16.77;;;;;;;0.81;100.00;99647.94;2297954;77;21434;-63
2022/12/20 04:37:19;;;;;;;40.43;15.80;;;;;;;0.84;100.00;99648.75;2300541;77;21478;-62
2022/12/20 04:40:20;;;;;;;41.77;16.77;;;;;;;0.74;100.00;99650.99;2301317;77;21007;-64
2022/12/20 04:43:20;;;;;;;41.83;15.90;;;;;;;0.61;100.00;99645.06;2303863;77;20980;-64
2022/12/20 04:46:21;;;;;;;41.37;15.90;;;;;;;0.51;100.00;99645.55;2295174;77;20972;-62
2022/12/20 04:49:21;;;;;;;41.30;16.15;;;;;;;0.43;100.00;99642.61;2302500;77;21031;-62
2022/12/20 04:55:24;;;;;;;42.53;15.95;;;;;;;0.35;100.00;99637.50;2268916;77;21008;-62
2022/12/20 04:58:25;;;;;;;44.00;17.10;;;;;;;0.32;100.00;99634.95;2299550;77;21016;-63
2022/12/20 05:01:25;;;;;;;47.55;18.52;;;;;;;0.32;100.00;99619.47;2298671;77;21513;-63
2022/12/20 05:04:26;;;;;;;43.80;18.67;;;;;;;0.27;100.00;99613.46;2303988;77;21534;-63
2022/12/20 05:07:27;;;;;;;46.10;18.45;;;;;;;0.28;100.00;99626.80;2299174;77;20972;-64
2022/12/20 05:10:27;;;;;;;48.73;20.52;;;;;;;0.22;100.00;99618.66;2298376;77;20995;-62
2022/12/20 05:13:28;;;;;;;51.70;19.50;;;;;;;0.20;100.00;99620.82;2302973;77;20963;-63
2022/12/20 05:16:28;;;;;;;42.53;17.52;;;;;;;0.17;100.00;99620.40;2299779;77;21533;-62
2022/12/20 05:19:29;;;;;;;47.23;19.27;;;;;;;0.26;100.00;99608.75;2304866;77;21035;-62
2022/12/20 05:28:34;;;;;;;48.33;19.65;;;;;;;0.21;100.00;99613.06;2272179;77;21011;-63
2022/12/20 05:31:34;;;;;;;47.05;19.32;;;;;;;0.23;100.00;99624.66;2304511;77;21443;-63
2022/12/20 05:34:35;;;;;;;54.23;22.25;;;;;;;0.23;100.00;99622.97;2302026;77;21043;-64
2022/12/20 05:37:35;;;;;;;47.58;20.72;;;;;;;0.24;100.00;99623.81;2299197;77;20978;-64
2022/12/20 05:40:36;;;;;;;46.73;20.43;;;;;;;0.15;100.00;99613.11;2302102;77;21019;-64
2022/12/20 05:43:36;;;;;;;44.77;18.10;;;;;;;0.13;100.00;99610.55;2302160;77;21000;-62
2022/12/20 05:46:36;;;;;;;44.50;17.00;;;;;;;0.20;100.00;99602.31;2298309;77;20980;-63
2022/12/20 05:49:37;;;;;;;45.10;17.05;;;;;;;0.23;100.00;99607.48;2299152;77;21494;-63
2022/12/20 05:52:38;;;;;;;45.67;18.37;;;;;;;0.27;100.00;99609.59;2298912;77;21058;-62
2022/12/20 05:55:39;;;;;;;48.98;19.40;;;;;;;0.24;100.00;99607.03;2302754;77;20992;-62
2022/12/20 05:58:40;;;;;;;43.78;17.65;;;;;;;0.24;100.00;99601.43;2304284;77;21063;-62
2022/12/20 06:01:40;;;;;;;47.95;19.90;;;;;;;0.31;100.00;99605.69;2306527;77;21007;-62
2022/12/20 06:04:41;;;;;;;44.08;17.87;;;;;;;0.21;100.00;99602.75;2283136;77;21517;-62
2022/12/20 06:07:41;;;;;;;48.55;18.92;;;;;;;0.21;100.00;99602.75;2307274;77;20983;-62
2022/12/20 06:10:42;;;;;;;49.80;19.40;;;;;;;0.21;100.00;99604.48;2303224;77;21011;-62
2022/12/20 06:13:42;;;;;;;46.23;18.00;;;;;;;0.25;100.00;99608.77;2303272;77;21004;-63
2022/12/20 06:16:43;;;;;;;42.95;16.65;;;;;;;0.24;100.00;99604.45;2292470;77;21024;-62
2022/12/20 06:19:43;;;;;;;42.20;16.52;;;;;;;0.29;100.00;99600.13;2306425;77;21011;-62
2022/12/20 06:22:44;;;;;;;46.33;17.42;;;;;;;0.20;100.00;99604.89;2298986;77;21477;-61
2022/12/20 06:25:44;;;;;;;52.45;19.52;;;;;;;0.18;100.00;99605.35;2303022;77;20984;-62
2022/12/20 06:28:45;;;;;;;54.08;21.77;;;;;;;0.18;100.00;99595.47;2298620;77;20972;-61
2022/12/20 06:31:45;;;;;;;51.83;21.97;;;;;;;0.23;100.00;99611.35;2305471;77;20980;-62
2022/12/20 06:34:46;;;;;;;50.98;21.42;;;;;;;0.19;100.00;99604.91;2293056;77;21000;-62
2022/12/20 06:37:46;;;;;;;51.75;21.07;;;;;;;0.14;100.00;99600.66;2301961;77;21461;-62
2022/12/20 06:40:47;;;;;;;46.33;18.27;;;;;;;0.08;100.00;99602.41;2299950;77;20984;-62
2022/12/20 06:43:48;;;;;;;48.15;20.68;;;;;;;0.07;100.00;99600.27;2296753;77;21509;-63
2022/12/20 06:46:48;;;;;;;47.62;18.25;;;;;;;0.09;100.00;99600.27;2290275;77;20952;-62
2022/12/20 06:49:49;;;;;;;53.10;20.97;;;;;;;0.08;100.00;99583.06;2302820;77;20948;-64
2022/12/20 06:52:49;;;;;;;43.48;16.75;;;;;;;0.10;100.00;99578.32;2292970;77;20937;-62
2022/12/20 06:55:50;;;;;;;45.20;17.90;;;;;;;0.13;100.00;99589.91;2302662;77;21481;-63
2022/12/20 06:58:50;;;;;;;47.30;19.00;;;;;;;0.12;100.00;99587.34;2302764;77;21455;-62
2022/12/20 07:01:50;;;;;;;47.45;19.02;;;;;;;0.19;100.00;99585.55;2298839;77;20948;-63
2022/12/20 07:04:51;;;;;;;51.95;20.55;;;;;;;0.19;100.00;99586.43;2288997;77;20952;-62
2022/12/20 07:07:51;;;;;;;60.05;24.80;;;;;;;0.26;100.00;99596.26;2293809;77;20960;-63
2022/12/20 07:10:53;;;;;;;52.17;20.68;;;;;;;0.34;100.00;99603.11;2303867;77;20980;-62
2022/12/20 07:13:54;;;;;;;58.70;23.45;;;;;;;0.39;100.00;99605.66;2302726;77;21582;-63
2022/12/20 07:16:54;;;;;;;51.25;22.20;;;;;;;0.40;100.00;99590.56;2301147;77;20960;-63
2022/12/20 07:19:54;;;;;;;48.05;20.35;;;;;;;0.42;100.00;99587.55;2301103;77;20944;-64
2022/12/20 07:22:55;;;;;;;46.75;19.70;;;;;;;0.42;100.00;99592.72;2243259;78;20953;-62
2022/12/20 07:25:55;;;;;;;59.98;25.00;;;;;;;0.47;100.00;99597.39;2247351;78;20973;-63
2022/12/20 07:28:56;;;;;;;51.00;21.02;;;;;;;0.51;100.00;99587.92;2243871;78;21451;-64
2022/12/20 07:31:56;;;;;;;47.48;19.67;;;;;;;0.63;100.00;99604.61;2258394;78;21011;-64
2022/12/20 07:34:57;;;;;;;50.50;20.80;;;;;;;0.72;100.00;99603.67;2257367;78;20985;-63
2022/12/20 07:37:57;;;;;;;48.17;19.10;;;;;;;0.79;100.00;99608.33;2246161;78;20954;-64
2022/12/20 07:40:58;;;;;;;46.65;19.50;;;;;;;0.88;100.00;99609.98;2293632;77;20941;-63
2022/12/20 07:43:59;;;;;;;49.63;19.50;;;;;;;0.96;100.00;99597.86;2295042;77;21059;-64
2022/12/20 07:47:00;;;;;;;49.30;21.07;;;;;;;1.12;100.00;99589.52;2288490;77;21040;-64
2022/12/20 07:50:00;;;;;;;48.55;19.60;;;;;;;1.20;100.00;99592.44;2304246;77;20972;-64
2022/12/20 07:53:00;;;;;;;52.03;21.50;;;;;;;1.33;100.00;99593.61;2293550;77;21057;-63
2022/12/20 07:56:01;;;;;;;48.60;20.50;;;;;;;1.45;100.00;99587.02;2302157;77;20981;-62
2022/12/20 07:59:02;;;;;;;48.70;18.85;;;;;;;1.66;100.00;99585.88;2302109;77;21131;-63
2022/12/20 08:02:02;;;;;;;46.70;19.85;;;;;;;1.73;100.00;99595.27;2304547;77;21482;-64
2022/12/20 08:05:03;;;;;;;45.28;18.40;;;;;;;1.80;100.00;99578.41;2301379;77;20972;-62
2022/12/20 08:08:03;;;;;;;46.13;20.08;;;;;;;1.98;100.00;99570.81;2297486;77;20973;-63
2022/12/20 08:11:04;;;;;;;48.60;19.90;;;;;;;2.05;100.00;99571.14;2299267;77;21079;-64
2022/12/20 08:14:05;;;;;;;46.90;19.77;;;;;;;2.17;100.00;99572.69;2247123;78;20996;-63
2022/12/20 08:17:05;;;;;;;47.88;20.40;;;;;;;2.35;100.00;99562.51;2246823;78;21510;-62
2022/12/20 08:20:07;;;;;;;49.58;20.75;;;;;;;2.28;100.00;99555.27;2306439;77;20975;-64
2022/12/20 08:23:08;;;;;;;46.30;19.37;;;;;;;2.30;100.00;99562.59;2306367;77;21032;-64
2022/12/20 08:26:08;;;;;;;46.28;20.08;;;;;;;2.34;100.00;99555.19;2306333;77;21471;-64
2022/12/20 08:29:09;;;;;;;44.20;17.52;;;;;;;2.27;100.00;99558.76;2305993;77;21526;-64
2022/12/20 08:32:11;;;;;;;51.68;20.80;;;;;;;2.31;100.00;99557.80;2306363;77;20984;-64
2022/12/20 08:35:12;;;;;;;48.48;20.65;;;;;;;2.39;100.00;99552.08;2306511;77;21110;-64
2022/12/20 08:38:12;;;;;;;51.37;21.65;;;;;;;2.50;100.00;99545.86;2295349;77;21498;-62
2022/12/20 08:41:13;;;;;;;51.13;20.52;;;;;;;2.59;100.00;99553.04;2303808;77;21030;-64
2022/12/20 08:44:14;;;;;;;46.30;19.60;;;;;;;2.71;100.00;99553.27;2302042;77;21027;-64
2022/12/20 08:47:14;;;;;;;47.35;19.17;;;;;;;2.76;100.00;99550.62;2243256;78;21032;-64
2022/12/20 08:50:14;;;;;;;47.60;19.40;;;;;;;2.89;100.00;99552.55;2253333;78;20992;-64
2022/12/20 08:53:15;;;;;;;50.38;21.35;;;;;;;2.98;100.00;99558.85;2242138;78;21514;-64
2022/12/20 08:56:15;;;;;;;48.38;20.43;;;;;;;2.99;100.00;99560.98;2262960;78;21527;-65
2022/12/20 08:59:16;;;;;;;48.50;20.85;;;;;;;3.04;100.00;99564.36;2246783;78;20957;-63
2022/12/20 09:02:16;;;;;;;51.55;23.32;;;;;;;3.07;100.00;99564.30;2248245;78;21007;-64
2022/12/20 09:05:17;;;;;;;52.85;20.82;;;;;;;3.17;100.00;99564.54;2262600;78;20995;-64
2022/12/20 09:08:20;;;;;;;57.17;25.23;;;;;;;3.24;100.00;99566.58;2251958;78;21031;-63
2022/12/20 09:11:21;;;;;;;52.17;23.77;;;;;;;3.20;100.00;99564.47;2249736;78;21549;-64
2022/12/20 09:14:21;;;;;;;46.58;20.55;;;;;;;3.21;100.00;99563.60;2259162;78;21010;-64
2022/12/20 09:17:22;;;;;;;46.10;19.65;;;;;;;3.20;100.00;99563.18;2306654;77;21067;-63
2022/12/20 09:20:22;;;;;;;49.10;20.72;;;;;;;3.21;100.00;99561.01;2305141;77;21039;-63
2022/12/20 09:23:22;;;;;;;51.68;20.75;;;;;;;3.12;100.00;99556.86;2256130;76;21073;-64
2022/12/20 09:26:23;;;;;;;55.05;23.50;;;;;;;3.01;100.00;99557.49;2247972;78;21021;-64
2022/12/20 09:42:21;;;;;;;58.13;24.10;;;;;;;3.38;100.00;99577.55;2238592;79;22890;-58
2022/12/20 09:45:21;;;;;;;58.28;24.80;;;;;;;3.28;100.00;99576.86;2189467;81;20985;-59
2022/12/20 09:48:22;;;;;;;54.03;23.45;;;;;;;3.39;100.00;99563.70;2189252;81;21063;-58
2022/12/20 09:51:23;;;;;;;51.23;21.20;;;;;;;3.51;100.00;99567.78;2189247;81;21608;-58
2022/12/20 09:54:23;;;;;;;54.77;25.55;;;;;;;3.63;100.00;99566.66;2189190;81;20933;-58
2022/12/20 09:57:23;;;;;;;77.42;36.63;;;;;;;3.82;100.00;99547.66;2189296;81;20964;-58
2022/12/20 10:00:24;;;;;;;54.83;24.45;;;;;;;4.16;100.00;99539.96;2189293;81;21069;-58
2022/12/20 10:03:24;;;;;;;51.88;23.27;;;;;;;4.44;100.00;99529.36;2189423;81;21003;-58
2022/12/20 10:06:25;;;;;;;62.80;28.62;;;;;;;4.63;100.00;99521.52;2188802;81;21024;-58
2022/12/20 10:09:25;;;;;;;76.40;37.53;;;;;;;4.75;100.00;99526.84;2189211;81;21095;-59
2022/12/20 10:12:26;;;;;;;71.37;33.58;;;;;;;4.85;100.00;99527.00;2189170;81;21628;-58
2022/12/20 10:15:26;;;;;;;55.73;26.37;;;;;;;4.87;100.00;99526.98;2189150;81;21570;-58
2022/12/20 10:18:27;;;;;;;52.60;24.67;;;;;;;4.83;100.00;99530.10;2189520;81;21024;-58
2022/12/20 10:21:28;;;;;;;56.55;23.70;;;;;;;4.79;100.00;99531.07;2188870;81;21012;-59
2022/12/20 10:24:29;;;;;;;52.95;22.55;;;;;;;4.88;100.00;99530.43;2188762;81;21060;-59
2022/12/20 10:27:30;;;;;;;59.95;27.42;;;;;;;4.89;100.00;99525.64;2189256;81;21023;-58
2022/12/20 10:30:31;;;;;;;68.17;29.92;;;;;;;5.04;100.00;99517.41;2189267;81;21011;-58
2022/12/20 10:33:32;;;;;;;52.33;23.87;;;;;;;5.07;100.00;99509.55;2189495;81;20965;-58
2022/12/20 10:36:32;;;;;;;55.33;23.10;;;;;;;5.14;100.00;99499.39;2189028;81;21080;-59
2022/12/20 10:39:33;;;;;;;51.83;22.15;;;;;;;5.05;100.00;99494.42;2189197;81;21475;-58
2022/12/20 10:42:33;;;;;;;62.55;26.37;;;;;;;4.94;100.00;99489.96;2172822;81;21551;-58
2022/12/20 10:45:33;;;;;;;52.70;23.25;;;;;;;4.94;100.00;99488.23;2172877;81;20977;-58
2022/12/20 10:48:34;;;;;;;56.37;25.82;;;;;;;4.86;100.00;99492.32;2172848;81;21033;-59
2022/12/20 10:51:34;;;;;;;64.05;26.57;;;;;;;4.75;100.00;99493.05;2173008;81;21028;-58
2022/12/20 10:54:35;;;;;;;58.40;26.05;;;;;;;4.67;100.00;99482.87;2172316;81;20970;-59
2022/12/20 10:57:36;;;;;;;58.33;26.20;;;;;;;4.59;100.00;99480.07;2172274;81;21104;-58
2022/12/20 11:00:37;;;;;;;78.62;32.80;;;;;;;4.62;100.00;99473.48;2172247;82;21478;-58
2022/12/20 11:03:37;;;;;;;60.30;26.80;;;;;;;4.59;100.00;99458.83;2172254;82;21011;-58
2022/12/20 11:06:37;;;;;;;50.90;22.05;;;;;;;4.53;100.00;99457.70;2172433;81;20968;-59
2022/12/20 11:09:39;;;;;;;52.98;22.52;;;;;;;4.45;100.00;99447.52;2172274;81;21013;-59
2022/12/20 11:12:40;;;;;;;54.70;24.30;;;;;;;4.39;100.00;99453.31;2172248;81;21024;-58
2022/12/20 11:15:40;;;;;;;50.38;23.20;;;;;;;4.34;100.00;99458.17;2172129;81;21586;-58
2022/12/20 11:18:40;;;;;;;56.60;23.10;;;;;;;4.32;100.00;99452.17;2172210;81;20989;-58
2022/12/20 11:21:41;;;;;;;47.58;20.32;;;;;;;4.23;100.00;99441.16;2172108;81;20973;-58
2022/12/20 11:24:41;;;;;;;61.85;26.95;;;;;;;4.07;100.00;99450.62;2172502;81;20973;-58
2022/12/20 11:27:42;;;;;;;65.83;28.80;;;;;;;4.12;100.00;99446.18;2172272;81;20973;-58
2022/12/20 11:30:42;;;;;;;60.08;26.30;;;;;;;4.17;100.00;99446.06;2172383;81;20973;-59
2022/12/20 11:33:45;;;;;;;;;;;;;;;4.25;100.00;99444.55;2164121;82;21038;-59
2022/12/20 11:36:45;;;;;;;58.87;25.30;;;;;;;4.33;100.00;99431.78;2172186;81;20090;-59
2022/12/20 11:39:45;;;;;;;52.27;24.18;;;;;;;4.32;100.00;99437.02;2172066;81;21613;-59
2022/12/20 11:42:46;;;;;;;46.80;19.92;;;;;;;4.41;100.00;99441.12;2188058;81;21507;-59
2022/12/20 11:45:47;;;;;;;46.45;20.88;;;;;;;4.32;100.00;99448.70;2188926;81;21009;-59
2022/12/20 11:48:47;;;;;;;48.83;21.10;;;;;;;4.15;100.00;99447.83;2188922;81;21033;-59
2022/12/20 11:51:49;;;;;;;53.30;23.52;;;;;;;4.11;100.00;99445.77;2188722;81;20999;-59
2022/12/20 11:54:50;;;;;;;51.28;22.05;;;;;;;4.09;100.00;99443.63;2188849;81;21518;-58
2022/12/20 11:57:50;;;;;;;56.02;23.38;;;;;;;4.13;100.00;99436.64;2188892;81;21016;-59
2022/12/20 12:00:51;;;;;;;60.50;24.50;;;;;;;4.10;100.00;99436.27;2188707;81;21052;-59
2022/12/20 12:03:51;;;;;;;55.10;22.58;;;;;;;4.15;100.00;99433.12;2188740;81;21033;-59
2022/12/20 12:06:52;;;;;;;52.70;23.62;;;;;;;4.22;100.00;99426.00;2188830;81;20968;-58
2022/12/20 12:09:52;;;;;;;62.88;27.32;;;;;;;4.29;100.00;99416.32;2188786;81;21036;-59
2022/12/20 12:12:52;;;;;;;52.45;25.57;;;;;;;4.37;100.00;99398.80;2188822;81;21471;-59
2022/12/20 12:15:53;;;;;;;51.33;22.58;;;;;;;4.48;100.00;99391.58;2188803;81;21024;-59
2022/12/20 12:18:53;;;;;;;56.92;24.72;;;;;;;4.60;100.00;99375.25;2188774;81;20940;-59
2022/12/20 12:21:55;;;;;;;55.55;26.65;;;;;;;4.53;100.00;99381.05;2188430;81;20985;-59
2022/12/20 12:24:55;;;;;;;60.70;29.60;;;;;;;4.46;100.00;99388.61;2188668;81;21008;-59
2022/12/20 12:27:55;;;;;;;64.05;30.82;;;;;;;4.32;100.00;99385.95;2188709;81;21083;-58
2022/12/20 12:30:56;;;;;;;56.55;24.92;;;;;;;4.29;100.00;99382.10;2188778;81;21494;-58
2022/12/20 12:33:56;;;;;;;63.25;30.40;;;;;;;4.26;100.00;99393.03;2188676;81;21502;-59
2022/12/20 12:36:57;;;;;;;66.72;34.70;;;;;;;4.30;100.00;99388.17;2188661;81;20981;-58
2022/12/20 12:39:57;;;;;;;64.60;29.85;;;;;;;4.18;100.00;99387.17;2188895;81;21016;-59
2022/12/20 12:42:58;;;;;;;62.53;29.80;;;;;;;4.21;100.00;99379.30;2172474;81;21005;-59
2022/12/20 12:45:58;;;;;;;63.23;29.10;;;;;;;4.15;100.00;99382.48;2171857;82;21020;-58
2022/12/20 12:48:59;;;;;;;62.78;29.02;;;;;;;4.11;100.00;99380.02;2172134;81;20969;-59
2022/12/20 12:52:00;;;;;;;54.00;23.05;;;;;;;4.07;100.00;99389.61;2172152;81;21002;-58
2022/12/20 12:55:00;;;;;;;51.10;21.73;;;;;;;3.99;100.00;99384.63;2172003;81;21585;-59
2022/12/20 12:58:01;;;;;;;57.90;26.17;;;;;;;4.00;100.00;99385.47;2172209;81;21443;-59
2022/12/20 13:01:02;;;;;;;61.53;25.35;;;;;;;3.99;100.00;99391.54;2172015;81;20985;-58
2022/12/20 13:04:02;;;;;;;59.93;25.57;;;;;;;3.98;100.00;99389.40;2172300;82;20984;-59
2022/12/20 13:07:03;;;;;;;53.15;23.40;;;;;;;3.95;100.00;99392.08;2172214;81;20993;-58
2022/12/20 13:10:04;;;;;;;58.87;26.37;;;;;;;3.83;100.00;99384.58;2172019;81;20988;-59
2022/12/20 13:13:04;;;;;;;56.75;24.37;;;;;;;3.71;100.00;99373.22;2172157;81;21503;-58
2022/12/20 13:16:05;;;;;;;55.38;26.07;;;;;;;3.64;100.00;99375.94;2172521;81;20981;-59
2022/12/20 13:19:06;;;;;;;48.42;21.15;;;;;;;3.58;100.00;99385.17;2172221;82;21044;-59
2022/12/20 13:22:06;;;;;;;51.68;21.55;;;;;;;3.49;100.00;99384.53;2172084;81;21087;-58
2022/12/20 13:25:06;;;;;;;59.45;23.50;;;;;;;3.44;100.00;99393.72;2172167;81;21009;-59
2022/12/20 13:28:07;;;;;;;59.95;24.43;;;;;;;3.40;100.00;99403.30;2172213;81;20982;-59
2022/12/20 13:31:09;;;;;;;59.23;26.42;;;;;;;3.36;100.00;99404.28;2171925;82;21548;-59
2022/12/20 13:34:12;;;;;;;67.55;27.52;;;;;;;3.34;100.00;99399.55;2172009;81;21056;-59
2022/12/20 13:37:12;;;;;;;64.65;27.67;;;;;;;3.31;100.00;99395.73;2172179;81;21494;-58
2022/12/20 13:40:13;;;;;;;87.55;35.20;;;;;;;3.26;100.00;99400.16;2172118;81;21462;-58
2022/12/20 13:43:13;;;;;;;86.42;32.93;;;;;;;3.23;100.00;99397.64;2171810;81;21035;-58
2022/12/20 13:46:14;;;;;;;73.40;29.07;;;;;;;3.14;100.00;99395.26;2172436;81;20989;-59
2022/12/20 13:49:14;;;;;;;73.72;31.00;;;;;;;3.15;100.00;99394.34;2172189;81;21029;-59
2022/12/20 13:52:15;;;;;;;57.45;25.88;;;;;;;3.15;100.00;99393.92;2172162;81;20961;-58
2022/12/20 13:55:16;;;;;;;68.90;31.10;;;;;;;3.12;100.00;99402.61;2172122;81;21108;-59
2022/12/20 13:58:16;;;;;;;63.50;29.00;;;;;;;3.10;100.00;99400.94;2172122;81;21503;-58
2022/12/20 14:01:16;;;;;;;53.78;23.50;;;;;;;3.02;100.00;99392.49;2172456;82;20997;-58
2022/12/20 14:04:17;;;;;;;52.08;22.15;;;;;;;2.94;100.00;99393.50;2172304;81;21018;-58
2022/12/20 14:07:18;;;;;;;56.98;26.60;;;;;;;2.91;100.00;99397.88;2172125;82;21004;-58
2022/12/20 14:10:19;;;;;;;74.45;32.93;;;;;;;2.82;100.00;99402.81;2172355;81;21024;-58
2022/12/20 14:13:20;;;;;;;61.58;29.52;;;;;;;2.77;100.00;99401.61;2172136;81;21073;-59
2022/12/20 14:16:20;;;;;;;61.02;32.00;;;;;;;2.77;100.00;99400.32;2172078;81;21089;-58
2022/12/20 14:19:21;;;;;;;63.35;28.15;;;;;;;2.74;100.00;99395.62;2172174;82;21012;-58
2022/12/20 14:22:21;;;;;;;59.15;25.82;;;;;;;2.65;100.00;99400.55;2172229;81;21005;-58